Time;durP1;ratioP1;P1;durP2;ratioP2;P2;SDS_P1;SDS_P2;PMS_P1;PMS_P2;Temp;Humidity;BMP_temperature;BMP_pressure;BME280_temperature;BME280_humidity;BME280_pressure;Samples;Min_cycle;Max_cycle;Signal;HPM_P1;HPM_P2
2022/08/06 00:00:32;;;;;;;1.50;1.40;;;24.40;47.60;25.20;101678.00;;;;5029361;28;20649;-45
2022/08/06 00:02:58;;;;;;;2.20;1.50;;;24.40;47.60;25.20;101676.00;;;;5029167;28;20680;-45
2022/08/06 00:05:25;;;;;;;1.50;1.40;;;24.40;47.70;25.10;101682.00;;;;5028687;28;20704;-45
2022/08/06 00:07:51;;;;;;;1.98;1.50;;;24.40;47.70;25.10;101686.00;;;;5028778;28;20211;-45
2022/08/06 00:10:18;;;;;;;3.53;1.70;;;24.40;47.80;25.10;101680.00;;;;5027544;28;20840;-45
2022/08/06 00:12:44;;;;;;;2.22;1.50;;;24.40;47.80;25.10;101677.00;;;;5028915;28;20178;-45
2022/08/06 00:15:10;;;;;;;2.95;1.75;;;24.30;47.80;25.10;101679.00;;;;5028966;28;20708;-45
2022/08/06 00:17:37;;;;;;;1.77;1.47;;;24.30;47.80;25.10;101680.00;;;;5034066;28;20214;-45
2022/08/06 00:20:05;;;;;;;1.90;1.60;;;24.30;47.60;25.00;101682.00;;;;5028814;28;20179;-46
2022/08/06 00:22:31;;;;;;;1.70;1.50;;;24.30;47.80;25.00;101673.00;;;;5028536;28;20715;-45
2022/08/06 00:24:57;;;;;;;2.15;1.63;;;24.20;47.70;25.00;101678.00;;;;5028886;28;20198;-45
2022/08/06 00:27:23;;;;;;;3.10;1.40;;;24.20;47.70;25.00;101682.00;;;;5027381;28;20197;-45
2022/08/06 00:29:49;;;;;;;2.70;1.40;;;24.20;47.70;24.90;101683.00;;;;5026945;28;20186;-46
2022/08/06 00:32:15;;;;;;;1.95;1.58;;;24.20;48.40;24.90;101686.00;;;;5028350;28;20580;-45
2022/08/06 00:34:41;;;;;;;2.28;1.60;;;24.10;47.70;24.90;101684.00;;;;5027974;28;20202;-45
2022/08/06 00:37:07;;;;;;;2.97;1.57;;;24.10;47.60;24.90;101683.00;;;;5028222;28;20693;-45
2022/08/06 00:39:32;;;;;;;2.85;1.67;;;24.10;47.70;24.80;101682.00;;;;5026971;28;20175;-46
2022/08/06 00:41:58;;;;;;;1.70;1.37;;;24.10;47.60;24.80;101689.00;;;;5028210;28;20336;-46
2022/08/06 00:44:25;;;;;;;2.78;1.80;;;24.10;47.70;24.80;101685.00;;;;5028182;28;20163;-45
2022/08/06 00:46:51;;;;;;;2.30;1.50;;;24.10;47.80;24.80;101684.00;;;;5027935;28;20610;-47
2022/08/06 00:49:16;;;;;;;1.73;1.52;;;24.00;47.90;24.80;101685.00;;;;5028494;28;20210;-46
2022/08/06 00:51:42;;;;;;;1.65;1.55;;;24.00;48.00;24.80;101685.00;;;;5028183;28;20167;-46
2022/08/06 00:54:08;;;;;;;1.80;1.67;;;24.00;47.90;24.70;101688.00;;;;5028255;28;20203;-46
2022/08/06 00:56:34;;;;;;;3.60;1.70;;;24.00;48.00;24.70;101691.00;;;;5026809;28;20286;-45
2022/08/06 00:58:59;;;;;;;2.57;1.90;;;23.90;48.00;24.70;101697.00;;;;5028153;28;20203;-45
2022/08/06 01:01:25;;;;;;;2.20;1.80;;;23.90;48.00;24.70;101705.00;;;;5028051;28;20586;-45
2022/08/06 01:03:51;;;;;;;3.30;1.57;;;23.90;48.10;24.70;101705.00;;;;5028080;28;20527;-47
2022/08/06 01:06:16;;;;;;;2.97;1.70;;;23.90;48.20;24.60;101709.00;;;;5027581;28;20213;-46
2022/08/06 01:08:42;;;;;;;2.57;1.60;;;23.90;48.20;24.60;101702.00;;;;5027495;28;20261;-47
2022/08/06 01:11:08;;;;;;;2.03;1.67;;;23.90;48.10;24.60;101704.00;;;;5027623;28;20794;-46
2022/08/06 01:13:34;;;;;;;2.47;1.60;;;23.80;48.10;24.60;101708.00;;;;5027709;28;20166;-46
2022/08/06 01:16:25;;;;;;;3.60;1.73;;;23.80;48.10;24.60;101708.00;;;;5027327;28;20559;-46
2022/08/06 01:19:11;;;;;;;2.57;1.70;;;23.80;47.90;24.60;101704.00;;;;5026349;28;20170;-46
2022/08/06 01:21:52;;;;;;;3.53;1.80;;;23.80;47.80;24.60;101708.00;;;;5012356;28;20159;-46
2022/08/06 01:25:01;;;;;;;2.50;1.67;;;23.70;47.90;24.60;101707.00;;;;5026507;28;20158;-45
2022/08/06 01:27:58;;;;;;;3.83;1.93;;;23.70;48.10;24.50;101708.00;;;;5026194;28;20271;-46
2022/08/06 01:30:28;;;;;;;3.67;1.70;;;23.60;48.20;24.50;101715.00;;;;5026339;28;20175;-46
2022/08/06 01:33:02;;;;;;;1.83;1.70;;;23.60;48.30;24.50;101716.00;;;;5010363;28;20197;-46
2022/08/06 01:35:30;;;;;;;1.87;1.70;;;23.60;48.40;24.40;101714.00;;;;5010276;28;20721;-47
2022/08/06 01:38:07;;;;;;;2.03;1.60;;;23.60;48.50;24.40;101720.00;;;;4993540;28;20860;-46
2022/08/06 01:40:34;;;;;;;1.97;1.70;;;23.60;48.50;24.40;101715.00;;;;5010939;28;20181;-46
2022/08/06 01:43:01;;;;;;;4.40;1.97;;;23.60;48.70;24.40;101713.00;;;;5026372;28;20163;-46
2022/08/06 01:45:29;;;;;;;2.53;1.70;;;23.50;48.70;24.30;101718.00;;;;5027559;28;20194;-46
2022/08/06 01:47:59;;;;;;;2.77;1.93;;;23.50;48.70;24.30;101724.00;;;;5025855;28;20277;-46
2022/08/06 01:50:37;;;;;;;3.00;1.90;;;23.40;48.60;24.30;101728.00;;;;5026030;28;20614;-46
2022/08/06 01:53:05;;;;;;;1.87;1.73;;;23.40;48.70;24.30;101723.00;;;;5026337;28;20173;-46
2022/08/06 01:55:40;;;;;;;2.60;1.97;;;23.40;48.80;24.20;101716.00;;;;5009885;28;20209;-46
2022/08/06 01:58:06;;;;;;;1.70;1.60;;;23.40;48.80;24.20;101733.00;;;;5009885;28;20166;-46
2022/08/06 02:00:32;;;;;;;2.73;1.90;;;23.40;48.70;24.20;101729.00;;;;5027147;28;20228;-46
2022/08/06 02:02:59;;;;;;;1.60;1.50;;;23.40;48.80;24.20;101733.00;;;;5026002;28;20170;-46
2022/08/06 02:05:25;;;;;;;1.93;1.73;;;23.40;48.80;24.20;101735.00;;;;5026059;28;20230;-46
2022/08/06 02:07:51;;;;;;;3.20;1.77;;;23.30;48.70;24.10;101729.00;;;;5009348;28;20301;-46
2022/08/06 02:10:17;;;;;;;2.40;1.87;;;23.30;48.70;24.10;101734.00;;;;5009906;28;20167;-46
2022/08/06 02:12:43;;;;;;;2.47;2.00;;;23.30;48.70;24.10;101747.00;;;;5010785;28;20245;-45
2022/08/06 02:15:12;;;;;;;2.87;1.70;;;23.30;48.70;24.00;101730.00;;;;5012255;28;20673;-46
2022/08/06 02:17:42;;;;;;;2.80;2.10;;;23.20;48.70;24.00;101740.00;;;;5025804;28;20737;-46
2022/08/06 02:20:09;;;;;;;3.27;1.83;;;23.20;48.70;24.00;101741.00;;;;5027039;28;20645;-46
2022/08/06 02:22:37;;;;;;;2.67;1.83;;;23.20;48.70;24.00;101751.00;;;;5009465;28;20214;-46
2022/08/06 02:25:06;;;;;;;2.37;1.83;;;23.20;48.70;23.90;101756.00;;;;5008992;28;20197;-46
2022/08/06 02:27:32;;;;;;;4.30;2.10;;;23.10;48.60;23.90;101744.00;;;;5009459;28;20190;-46
2022/08/06 02:29:59;;;;;;;2.37;2.00;;;23.10;48.50;23.90;101745.00;;;;5009449;28;20202;-46
2022/08/06 02:32:24;;;;;;;2.20;1.77;;;23.00;48.50;23.80;101737.00;;;;5025778;28;20163;-45
2022/08/06 02:34:50;;;;;;;2.93;2.13;;;23.00;48.50;23.80;101740.00;;;;5025428;28;20164;-46
2022/08/06 02:37:30;;;;;;;4.70;2.00;;;23.00;48.50;23.80;101737.00;;;;5026525;28;20203;-47
2022/08/06 02:40:12;;;;;;;2.30;2.10;;;23.00;48.60;23.80;101755.00;;;;5010955;28;20167;-46
2022/08/06 02:42:53;;;;;;;3.37;2.33;;;23.00;48.60;23.80;101750.00;;;;5027145;28;20169;-46
2022/08/06 02:45:30;;;;;;;3.23;2.13;;;23.00;48.60;23.70;101740.00;;;;5009512;28;20209;-47
2022/08/06 02:48:04;;;;;;;3.17;2.20;;;23.00;48.50;23.70;101750.00;;;;5011071;28;20550;-46
2022/08/06 02:50:37;;;;;;;2.60;2.23;;;22.90;48.50;23.60;101755.00;;;;5027501;28;20569;-46
2022/08/06 02:53:21;;;;;;;2.50;2.13;;;22.90;48.40;23.70;101758.00;;;;5013940;28;20517;-46
2022/08/06 02:55:49;;;;;;;3.20;2.10;;;22.90;48.50;23.20;101770.00;;;;5014364;28;20197;-46
2022/08/06 02:58:20;;;;;;;3.33;2.47;;;22.90;48.50;23.70;101762.00;;;;5012372;28;20183;-46
2022/08/06 03:00:47;;;;;;;3.23;2.40;;;22.90;48.50;23.60;101747.00;;;;5030439;28;20178;-46
2022/08/06 03:03:14;;;;;;;2.93;2.33;;;22.80;48.40;23.60;101761.00;;;;5012915;28;20272;-46
2022/08/06 03:05:41;;;;;;;3.27;2.30;;;22.90;48.50;23.60;101758.00;;;;5012700;28;20191;-45
2022/08/06 03:08:07;;;;;;;2.83;2.10;;;22.80;48.40;23.60;101763.00;;;;5012665;28;20206;-46
2022/08/06 03:10:33;;;;;;;3.27;2.20;;;22.80;48.40;23.60;101763.00;;;;5012412;28;20172;-45
2022/08/06 03:12:59;;;;;;;4.07;2.30;;;22.80;48.40;23.60;101765.00;;;;5012351;28;20259;-46
2022/08/06 03:15:25;;;;;;;2.90;2.20;;;22.80;48.50;23.60;101761.00;;;;5028638;28;20562;-46
2022/08/06 03:17:50;;;;;;;3.30;2.10;;;22.70;48.50;23.50;101769.00;;;;5011968;28;20179;-46
2022/08/06 03:20:19;;;;;;;2.33;2.00;;;22.70;48.50;23.50;101767.00;;;;5029775;28;20258;-45
2022/08/06 03:22:48;;;;;;;2.70;2.10;;;22.70;48.60;23.50;101770.00;;;;5012437;28;20325;-46
2022/08/06 03:25:14;;;;;;;5.90;2.03;;;22.60;48.60;23.50;101777.00;;;;5012305;28;20284;-46
2022/08/06 03:27:39;;;;;;;2.40;1.90;;;22.60;48.50;23.50;101782.00;;;;5012015;28;20238;-46
2022/08/06 03:30:06;;;;;;;4.20;2.00;;;22.60;48.40;23.50;101778.00;;;;5011965;28;20167;-46
2022/08/06 03:32:32;;;;;;;2.80;1.97;;;22.60;48.80;23.40;101788.00;;;;5029566;28;20186;-46
2022/08/06 03:34:58;;;;;;;3.10;2.00;;;22.60;48.80;23.40;101784.00;;;;5028315;28;20194;-46
2022/08/06 03:37:24;;;;;;;2.00;1.80;;;22.60;48.80;23.40;101786.00;;;;5028614;28;20190;-46
2022/08/06 03:39:50;;;;;;;3.33;2.37;;;22.50;48.70;23.40;101772.00;;;;5011729;28;20253;-46
2022/08/06 03:42:17;;;;;;;8.97;8.10;;;22.50;48.70;23.40;101782.00;;;;5028428;28;20210;-46
2022/08/06 03:44:42;;;;;;;4.57;4.17;;;22.50;48.70;23.40;101779.00;;;;5028147;28;20179;-46
2022/08/06 03:47:32;;;;;;;3.53;3.23;;;22.40;48.80;23.30;101787.00;;;;5028009;28;20249;-46
2022/08/06 03:50:08;;;;;;;4.70;3.60;;;22.40;48.60;23.30;101795.00;;;;5014679;28;20217;-46
2022/08/06 03:52:59;;;;;;;3.03;2.77;;;22.40;48.80;23.30;101792.00;;;;5027847;28;20170;-46
2022/08/06 03:55:26;;;;;;;3.43;2.83;;;22.30;48.80;23.20;101792.00;;;;5025089;28;20302;-46
2022/08/06 03:57:55;;;;;;;3.43;2.53;;;22.30;48.80;23.20;101794.00;;;;5027076;28;20461;-47
2022/08/06 04:00:23;;;;;;;5.23;2.80;;;22.30;48.70;23.20;101798.00;;;;5043925;28;20576;-46
2022/08/06 04:02:51;;;;;;;2.50;2.30;;;22.30;48.70;23.20;101804.00;;;;5042459;28;20187;-46
2022/08/06 04:05:19;;;;;;;3.07;2.33;;;22.30;48.50;23.20;101809.00;;;;5043407;28;20293;-46
2022/08/06 04:07:47;;;;;;;3.47;2.40;;;22.20;48.50;23.10;101802.00;;;;5043913;28;20199;-46
2022/08/06 04:10:14;;;;;;;2.90;2.20;;;22.20;48.70;23.10;101786.00;;;;5043353;28;20225;-46
2022/08/06 04:12:41;;;;;;;2.77;2.23;;;22.20;48.60;23.10;101808.00;;;;5042830;28;20637;-45
2022/08/06 04:15:07;;;;;;;3.43;2.03;;;22.20;48.60;23.10;101813.00;;;;5043136;28;20198;-43
2022/08/06 04:17:35;;;;;;;2.20;1.93;;;22.10;48.70;23.10;101814.00;;;;5025513;28;20245;-43
2022/08/06 04:20:01;;;;;;;2.83;2.00;;;22.10;48.60;23.00;101814.00;;;;5043223;28;20179;-46
2022/08/06 04:22:27;;;;;;;2.90;2.10;;;22.10;48.60;23.00;101801.00;;;;5043431;28;20185;-46
2022/08/06 04:24:53;;;;;;;4.07;2.30;;;22.10;48.60;23.00;101819.00;;;;5043516;28;20229;-47
2022/08/06 04:27:18;;;;;;;2.27;2.00;;;22.10;48.60;23.00;101814.00;;;;5027982;28;20241;-45
2022/08/06 04:29:44;;;;;;;2.20;1.90;;;22.10;48.70;23.00;101817.00;;;;5043393;28;20182;-45
2022/08/06 04:32:10;;;;;;;2.80;2.10;;;22.10;48.80;23.00;101817.00;;;;5043069;28;20659;-45
2022/08/06 04:34:37;;;;;;;2.53;1.93;;;22.10;48.80;23.00;101823.00;;;;5043097;28;20202;-46
2022/08/06 04:37:03;;;;;;;3.40;1.93;;;22.10;48.80;22.90;101822.00;;;;5028139;28;20225;-45
2022/08/06 04:39:29;;;;;;;3.47;2.00;;;22.10;48.90;22.90;101823.00;;;;5043343;28;20218;-45
2022/08/06 04:41:55;;;;;;;6.40;1.97;;;22.10;48.90;22.90;101821.00;;;;5042918;28;20206;-46
2022/08/06 04:44:20;;;;;;;5.90;2.23;;;22.10;48.90;22.90;101824.00;;;;5043159;28;20167;-45
2022/08/06 04:46:49;;;;;;;1.90;1.80;;;22.10;48.90;22.90;101833.00;;;;5028073;28;20229;-46
2022/08/06 04:49:15;;;;;;;4.03;2.13;;;22.10;48.90;22.90;101832.00;;;;5042934;28;20226;-46
2022/08/06 04:51:47;;;;;;;4.67;1.90;;;22.10;49.10;22.90;101830.00;;;;5042803;28;20181;-46
2022/08/06 04:54:14;;;;;;;4.73;2.20;;;22.10;49.20;22.80;101837.00;;;;5041765;28;20174;-46
2022/08/06 04:56:40;;;;;;;3.53;2.30;;;22.10;49.20;22.80;101835.00;;;;5026949;28;20182;-45
2022/08/06 04:59:06;;;;;;;4.27;2.07;;;22.00;49.10;22.80;101834.00;;;;5027437;28;20681;-46
2022/08/06 05:01:32;;;;;;;4.67;2.20;;;22.00;49.10;22.80;101832.00;;;;5027457;28;20183;-46
2022/08/06 05:03:57;;;;;;;3.93;1.90;;;22.00;49.10;22.80;101835.00;;;;5026993;28;20576;-46
2022/08/06 05:06:35;;;;;;;2.83;1.80;;;22.00;49.20;22.80;101839.00;;;;5027614;28;20233;-45
2022/08/06 05:09:08;;;;;;;5.20;2.00;;;22.00;49.20;22.80;101848.00;;;;5041055;28;20198;-45
2022/08/06 05:11:40;;;;;;;2.77;1.87;;;22.00;49.30;22.70;101832.00;;;;5025476;28;20167;-46
2022/08/06 05:14:13;;;;;;;2.17;1.87;;;22.00;49.30;22.70;101853.00;;;;5041334;28;20648;-46
2022/08/06 05:16:39;;;;;;;3.87;1.80;;;22.00;49.40;22.70;101851.00;;;;5042080;28;20195;-46
2022/08/06 05:19:09;;;;;;;4.60;2.10;;;22.00;49.40;22.70;101854.00;;;;5042399;28;20179;-46
2022/08/06 05:21:36;;;;;;;2.87;1.83;;;21.90;49.30;22.70;101859.00;;;;5042158;28;20179;-46
2022/08/06 05:24:03;;;;;;;3.50;2.20;;;21.90;49.40;22.70;101857.00;;;;5041683;28;20610;-51
2022/08/06 05:26:28;;;;;;;3.20;1.80;;;21.90;49.40;22.70;101853.00;;;;5026095;28;20210;-44
2022/08/06 05:28:54;;;;;;;2.80;1.97;;;21.90;50.10;22.60;101864.00;;;;5042744;28;20195;-44
2022/08/06 05:31:35;;;;;;;2.83;1.87;;;21.90;49.50;22.70;101860.00;;;;5027343;28;20167;-44
2022/08/06 05:34:02;;;;;;;3.67;2.10;;;21.90;49.60;22.60;101860.00;;;;5026412;28;20170;-45
2022/08/06 05:36:28;;;;;;;2.13;1.90;;;21.90;49.60;22.60;101870.00;;;;5026957;28;20814;-46
2022/08/06 05:38:53;;;;;;;2.20;2.00;;;21.90;49.60;22.60;101873.00;;;;5027183;28;20174;-45
2022/08/06 05:41:19;;;;;;;2.90;1.80;;;21.80;49.40;22.60;101876.00;;;;5027074;28;20174;-47
2022/08/06 05:43:45;;;;;;;2.17;1.70;;;21.90;49.60;22.60;101870.00;;;;5026374;28;20171;-44
2022/08/06 05:46:20;;;;;;;2.03;1.80;;;21.80;49.50;22.50;101879.00;;;;5026733;28;20206;-45
2022/08/06 05:49:02;;;;;;;2.20;1.80;;;21.80;49.50;22.50;101864.00;;;;5041285;28;20186;-45
2022/08/06 05:52:09;;;;;;;2.00;1.80;;;21.80;49.60;22.50;101860.00;;;;5040836;28;20231;-46
2022/08/06 05:55:00;;;;;;;3.10;2.00;;;21.80;49.80;22.50;101872.00;;;;5037195;28;20734;-46
2022/08/06 05:57:41;;;;;;;2.47;1.80;;;21.80;49.80;22.50;101890.00;;;;5041465;28;20242;-46
2022/08/06 06:00:14;;;;;;;3.23;1.90;;;21.80;49.90;22.50;101888.00;;;;5041312;28;20171;-45
2022/08/06 06:02:50;;;;;;;2.63;1.90;;;21.80;50.00;22.50;101890.00;;;;5026136;28;20167;-45
2022/08/06 06:05:15;;;;;;;1.90;1.80;;;21.80;50.10;22.50;101883.00;;;;5042022;28;20278;-45
2022/08/06 06:07:41;;;;;;;2.60;2.10;;;21.80;50.10;22.50;101888.00;;;;5041732;28;20284;-45
2022/08/06 06:10:08;;;;;;;2.30;1.87;;;21.80;50.20;22.50;101887.00;;;;5042194;28;20257;-44
2022/08/06 06:12:34;;;;;;;2.07;1.87;;;21.80;50.40;22.50;101881.00;;;;5041675;28;20217;-45
2022/08/06 06:15:01;;;;;;;1.90;1.80;;;21.70;50.30;22.40;101892.00;;;;5042119;28;20604;-44
2022/08/06 06:17:48;;;;;;;2.80;1.80;;;21.70;50.30;22.40;101882.00;;;;5041899;28;20175;-44
2022/08/06 06:20:22;;;;;;;2.03;1.80;;;21.70;50.50;22.40;101893.00;;;;5026709;28;20197;-44
2022/08/06 06:22:59;;;;;;;2.23;2.00;;;21.70;50.60;22.40;101892.00;;;;5026271;28;20210;-45
2022/08/06 06:25:56;;;;;;;2.90;2.00;;;21.70;50.60;22.10;101888.00;;;;5027130;28;20209;-44
2022/08/06 06:28:30;;;;;;;1.93;1.73;;;21.70;50.70;22.30;101899.00;;;;5005092;28;20279;-45
2022/08/06 06:31:36;;;;;;;3.70;2.20;;;21.70;50.70;22.30;101892.00;;;;5045798;28;20158;-45
2022/08/06 06:34:30;;;;;;;3.53;2.00;;;21.70;50.80;22.30;101893.00;;;;4980258;28;20441;-45
2022/08/06 06:37:14;;;;;;;2.43;2.20;;;21.70;50.80;22.20;101887.00;;;;5008245;28;20274;-45
2022/08/06 06:39:53;;;;;;;2.83;2.13;;;21.70;50.90;22.20;101884.00;;;;5009539;28;20170;-46
2022/08/06 06:43:02;;;;;;;2.70;2.20;;;21.70;51.00;22.20;101891.00;;;;5030318;28;20172;-44
2022/08/06 06:45:50;;;;;;;5.07;2.30;;;21.70;51.00;22.20;101897.00;;;;5003424;28;20245;-44
2022/08/06 06:48:23;;;;;;;2.67;2.13;;;21.60;51.30;22.20;101898.00;;;;5028915;28;20234;-45
2022/08/06 06:50:54;;;;;;;2.77;2.03;;;21.70;51.40;22.20;101905.00;;;;5025279;28;20211;-45
2022/08/06 06:53:20;;;;;;;4.33;2.57;;;21.70;51.60;22.20;101903.00;;;;5028330;28;20221;-46
2022/08/06 06:55:53;;;;;;;4.23;2.50;;;21.60;51.50;22.20;101907.00;;;;5028907;28;20191;-46
2022/08/06 06:58:41;;;;;;;4.33;2.40;;;21.60;51.50;22.20;101909.00;;;;5029383;28;20254;-45
2022/08/06 07:01:11;;;;;;;4.40;2.37;;;21.60;51.60;22.20;101924.00;;;;5028265;28;20787;-45
2022/08/06 07:03:38;;;;;;;3.23;2.47;;;21.60;51.80;22.20;101920.00;;;;5027093;28;20229;-45
2022/08/06 07:06:05;;;;;;;4.80;2.53;;;21.60;52.10;22.20;101917.00;;;;5026917;28;20277;-46
2022/08/06 07:08:32;;;;;;;3.53;2.20;;;21.50;52.10;22.20;101916.00;;;;5010041;28;20669;-45
2022/08/06 07:10:58;;;;;;;5.30;2.40;;;21.50;52.00;22.20;101929.00;;;;5007475;28;20198;-45
2022/08/06 07:13:24;;;;;;;5.37;2.30;;;21.50;51.90;22.20;101932.00;;;;5007395;28;20196;-46
2022/08/06 07:15:49;;;;;;;2.80;1.90;;;21.50;52.10;22.10;101934.00;;;;5007963;28;20684;-46
2022/08/06 07:18:15;;;;;;;2.53;2.30;;;21.60;51.90;22.10;101932.00;;;;5008478;28;20650;-45
2022/08/06 07:20:41;;;;;;;2.97;2.00;;;21.60;51.90;22.10;101931.00;;;;5010225;28;20186;-45
2022/08/06 07:23:08;;;;;;;3.60;2.00;;;21.60;51.90;22.10;101932.00;;;;4992710;28;20180;-46
2022/08/06 07:25:40;;;;;;;5.43;2.40;;;21.60;52.80;22.10;101930.00;;;;5008297;28;20198;-46
2022/08/06 07:28:08;;;;;;;5.00;2.30;;;21.60;52.30;22.10;101937.00;;;;5008258;28;20180;-46
2022/08/06 07:30:34;;;;;;;3.23;2.27;;;21.60;52.60;22.10;101933.00;;;;5008387;28;20156;-46
2022/08/06 07:33:00;;;;;;;4.70;2.43;;;21.60;52.20;22.10;101939.00;;;;4962553;28;20255;-46
2022/08/06 07:35:25;;;;;;;5.83;2.40;;;21.60;52.30;22.00;101920.00;;;;5008313;28;20191;-46
2022/08/06 07:38:01;;;;;;;2.43;2.07;;;21.60;52.30;22.00;101947.00;;;;5007714;28;20658;-46
2022/08/06 07:40:43;;;;;;;2.30;1.70;;;21.50;52.20;21.90;101941.00;;;;5008352;28;20160;-46
2022/08/06 07:43:13;;;;;;;2.57;1.90;;;21.50;52.40;21.90;101945.00;;;;5008462;28;20178;-45
2022/08/06 07:45:39;;;;;;;2.43;1.90;;;21.50;52.30;21.90;101937.00;;;;5009165;28;20232;-46
2022/08/06 07:48:08;;;;;;;3.63;1.90;;;21.50;52.30;21.90;101938.00;;;;5007500;28;20233;-45
2022/08/06 07:50:34;;;;;;;2.43;1.80;;;21.50;52.20;21.80;101945.00;;;;5008503;28;20171;-45
2022/08/06 07:52:59;;;;;;;2.93;1.80;;;21.50;52.10;21.90;101915.00;;;;5009334;28;20261;-46
2022/08/06 07:55:26;;;;;;;3.93;1.93;;;21.40;52.20;21.90;101890.00;;;;5008019;28;20187;-45
2022/08/06 07:57:56;;;;;;;3.27;1.87;;;21.50;52.20;21.90;101939.00;;;;5007830;28;20187;-45
2022/08/06 08:00:22;;;;;;;2.53;1.90;;;21.50;52.10;21.90;101945.00;;;;5007562;28;20958;-44
2022/08/06 08:08:18;;;;;;;2.83;1.60;;;21.30;52.30;21.80;101934.00;;;;5008476;28;20258;-46
2022/08/06 08:10:43;;;;;;;2.73;1.53;;;21.30;52.00;21.70;101926.00;;;;5007616;28;20176;-46
2022/08/06 08:13:10;;;;;;;1.40;1.30;;;21.40;51.50;21.70;101933.00;;;;5007445;28;20195;-46
2022/08/06 08:15:37;;;;;;;2.77;1.60;;;21.30;51.60;21.70;101937.00;;;;5007377;28;20194;-43
2022/08/06 08:18:03;;;;;;;2.23;1.40;;;21.30;51.80;21.80;101940.00;;;;5007633;28;20538;-43
2022/08/06 08:20:30;;;;;;;1.77;1.33;;;21.30;52.00;21.80;101938.00;;;;5008861;28;20250;-44
2022/08/06 08:22:56;;;;;;;2.33;1.73;;;21.40;52.00;21.90;101907.00;;;;5008534;28;20156;-43
2022/08/06 08:25:21;;;;;;;2.53;1.47;;;21.40;52.40;21.90;101941.00;;;;5007271;28;20238;-43
2022/08/06 08:27:47;;;;;;;2.23;1.43;;;21.40;52.10;22.00;101941.00;;;;5008236;28;20214;-43
2022/08/06 08:30:13;;;;;;;2.00;1.53;;;21.50;52.00;22.00;101929.00;;;;5008537;28;20171;-44
2022/08/06 08:32:39;;;;;;;3.20;1.70;;;21.60;52.10;22.00;101937.00;;;;4953156;28;22170;-43
2022/08/06 08:35:05;;;;;;;2.30;1.70;;;21.60;52.00;22.10;101934.00;;;;5027613;28;20283;-44
2022/08/06 08:37:30;;;;;;;4.20;1.83;;;21.60;52.00;22.10;101940.00;;;;5028033;28;20206;-43
2022/08/06 08:39:56;;;;;;;5.33;1.83;;;21.60;52.10;22.10;101942.00;;;;5027291;28;20194;-43
2022/08/06 08:42:40;;;;;;;3.97;1.70;;;21.70;52.10;22.10;101938.00;;;;5028360;28;20236;-42
2022/08/06 08:45:06;;;;;;;2.77;1.20;;;21.70;52.80;22.20;101935.00;;;;5028287;28;20256;-43
2022/08/06 08:47:32;;;;;;;2.20;1.57;;;21.70;52.30;22.20;101942.00;;;;5012303;28;20555;-42
2022/08/06 08:49:59;;;;;;;2.17;1.43;;;21.70;52.20;22.20;101938.00;;;;5027035;28;20232;-43
2022/08/06 08:52:33;;;;;;;3.90;1.57;;;21.70;52.50;22.20;101887.00;;;;5026806;28;20229;-43
2022/08/06 08:55:03;;;;;;;2.53;1.50;;;21.70;53.20;22.20;101945.00;;;;5026906;28;20664;-43
2022/08/06 08:57:29;;;;;;;2.77;1.57;;;21.70;52.40;22.20;101927.00;;;;5027661;28;20178;-43
2022/08/06 08:59:55;;;;;;;2.90;1.40;;;21.70;52.40;22.20;101933.00;;;;5010033;28;20254;-42
2022/08/06 09:02:23;;;;;;;1.67;1.37;;;21.70;53.20;22.30;101921.00;;;;5026480;28;20167;-43
2022/08/06 09:04:49;;;;;;;3.30;1.40;;;21.70;52.80;22.30;101943.00;;;;5026113;28;20257;-43
2022/08/06 09:07:15;;;;;;;2.50;1.30;;;21.80;53.10;22.30;101939.00;;;;5026191;28;20293;-42
2022/08/06 09:09:41;;;;;;;3.60;1.43;;;21.80;53.00;22.30;101936.00;;;;5026582;28;20264;-43
2022/08/06 09:12:07;;;;;;;2.73;1.30;;;21.80;53.10;22.30;101935.00;;;;5027487;28;20180;-41
2022/08/06 09:14:37;;;;;;;1.40;1.30;;;21.80;53.30;22.30;101936.00;;;;5029224;28;20167;-42
2022/08/06 09:17:04;;;;;;;2.00;1.40;;;21.80;53.40;22.30;101935.00;;;;5030508;28;20167;-42
2022/08/06 09:19:30;;;;;;;1.87;1.27;;;21.80;54.50;22.40;101941.00;;;;5030519;28;20718;-42
2022/08/06 09:21:59;;;;;;;2.87;1.50;;;21.80;53.30;22.40;101924.00;;;;5027454;28;20197;-42
2022/08/06 09:24:25;;;;;;;2.97;1.40;;;21.90;53.20;22.40;101942.00;;;;5026998;28;20537;-42
2022/08/06 09:27:17;;;;;;;1.40;1.30;;;21.90;53.10;22.50;101927.00;;;;5023463;28;20191;-44
2022/08/06 09:29:51;;;;;;;2.30;1.23;;;21.90;53.30;22.50;101949.00;;;;5007410;28;20493;-43
2022/08/06 09:32:39;;;;;;;2.47;1.40;;;21.90;53.30;22.50;101936.00;;;;4979203;28;20270;-43
2022/08/06 09:35:30;;;;;;;4.07;1.40;;;21.90;53.70;22.50;101939.00;;;;5008375;28;20237;-42
2022/08/06 09:38:02;;;;;;;1.40;1.30;;;21.90;54.00;22.50;101938.00;;;;5023067;28;20262;-43
2022/08/06 09:40:28;;;;;;;1.87;1.10;;;21.90;54.00;22.50;101939.00;;;;5008818;28;20225;-43
2022/08/06 09:42:53;;;;;;;3.20;1.47;;;21.90;54.00;22.50;101940.00;;;;5009043;28;20680;-42
2022/08/06 09:45:22;;;;;;;2.40;1.30;;;21.90;54.20;22.60;101953.00;;;;5008517;28;20202;-42
2022/08/06 09:47:59;;;;;;;2.60;1.13;;;21.90;54.10;22.60;101943.00;;;;5008182;28;20195;-43
2022/08/06 09:50:42;;;;;;;1.13;1.03;;;21.90;54.00;22.60;101936.00;;;;5008508;28;20529;-42
2022/08/06 09:53:08;;;;;;;2.83;1.30;;;21.90;54.10;22.60;101944.00;;;;5007722;28;20265;-43
2022/08/06 09:55:34;;;;;;;1.63;1.40;;;21.90;54.50;22.60;101943.00;;;;5008486;28;20347;-41
2022/08/06 09:58:00;;;;;;;2.23;1.10;;;21.90;54.70;22.70;101943.00;;;;5007733;28;20186;-41
2022/08/06 10:00:31;;;;;;;2.50;1.40;;;21.90;54.30;22.70;101938.00;;;;5010162;28;20257;-44
2022/08/06 10:03:05;;;;;;;2.33;1.50;;;21.90;54.40;22.70;101945.00;;;;5011630;28;20156;-44
2022/08/06 10:05:31;;;;;;;1.30;1.20;;;21.90;54.60;22.70;101940.00;;;;5011699;28;20206;-42
2022/08/06 10:08:11;;;;;;;1.63;1.40;;;21.90;54.80;22.70;101941.00;;;;5012644;28;20278;-42
2022/08/06 10:10:42;;;;;;;1.10;1.00;;;21.90;55.00;22.70;101945.00;;;;5012754;28;20175;-43
2022/08/06 10:13:24;;;;;;;2.30;1.20;;;21.90;54.90;22.70;101944.00;;;;5012741;28;20166;-43
2022/08/06 10:15:51;;;;;;;1.73;1.30;;;21.90;55.10;22.70;101946.00;;;;5012104;28;20218;-44
2022/08/06 10:18:34;;;;;;;1.10;1.00;;;21.90;55.20;22.70;101936.00;;;;5012687;28;20254;-43
2022/08/06 10:21:05;;;;;;;1.40;1.30;;;22.00;55.40;22.70;101935.00;;;;5012633;28;20521;-44
2022/08/06 10:23:32;;;;;;;1.57;1.10;;;22.00;55.20;22.70;101943.00;;;;5012431;28;20274;-43
2022/08/06 10:25:59;;;;;;;0.93;0.93;;;22.00;55.20;22.70;101942.00;;;;5011794;28;20191;-43
2022/08/06 10:28:26;;;;;;;2.23;1.30;;;22.00;55.20;22.70;101952.00;;;;5012013;28;20196;-43
2022/08/06 10:30:53;;;;;;;1.70;1.23;;;22.10;55.20;22.80;101945.00;;;;5012475;28;20843;-43
2022/08/06 10:33:18;;;;;;;1.47;1.10;;;22.10;55.20;22.80;101948.00;;;;4845687;28;20179;-43
2022/08/06 10:35:44;;;;;;;1.10;1.00;;;22.10;55.20;22.80;101942.00;;;;5030626;28;20665;-44
2022/08/06 10:38:14;;;;;;;1.80;1.40;;;22.10;55.20;22.80;101944.00;;;;5030432;28;20206;-43
2022/08/06 10:40:41;;;;;;;1.50;1.37;;;22.20;55.20;22.80;101949.00;;;;5030924;28;20163;-42
2022/08/06 10:43:07;;;;;;;1.30;1.20;;;22.20;55.70;22.80;101945.00;;;;5031263;28;20587;-42
2022/08/06 10:45:33;;;;;;;1.40;1.07;;;22.20;55.50;22.90;101948.00;;;;5048316;28;20211;-41
2022/08/06 10:47:59;;;;;;;1.33;1.23;;;22.20;55.70;22.90;101892.00;;;;5032456;28;20223;-42
2022/08/06 10:50:25;;;;;;;1.10;1.00;;;22.20;55.70;22.90;101947.00;;;;5031466;28;20254;-43
2022/08/06 10:52:50;;;;;;;2.37;1.10;;;22.30;55.80;22.90;101947.00;;;;5047153;28;20315;-43
2022/08/06 10:55:17;;;;;;;2.03;1.20;;;22.30;55.60;22.90;101951.00;;;;5046557;28;20207;-42
2022/08/06 10:57:42;;;;;;;2.83;1.47;;;22.30;55.30;23.00;101882.00;;;;5031352;28;20179;-41
2022/08/06 11:00:09;;;;;;;3.03;1.30;;;22.30;55.70;22.90;101940.00;;;;5046690;28;20174;-41
2022/08/06 11:03:18;;;;;;;1.77;1.10;;;22.30;55.80;23.00;101942.00;;;;5032002;28;20179;-41
2022/08/06 11:05:45;;;;;;;1.80;1.20;;;22.40;55.90;23.00;101934.00;;;;5031642;28;20305;-41